This is the latest recevied weather packets stored in our database for station/object OE-11138. If no packets are shown the sender has not sent any weather packets the latest 10 day(s).
| Time | Temp. | Humidity | Pressure | Rain* | Wind** | Luminosity | Snow |
|---|---|---|---|---|---|---|---|
| 1787622922 | 8.33° C | 81% | 710 hPa | 0 mm | - | 0 W/m² | - |
| 1787622095 | 8.33° C | 82% | 710.3 hPa | 0 mm | - | 0 W/m² | - |
| 1787621722 | 8.33° C | 83% | 710.6 hPa | 0 mm | - | 0 W/m² | - |
| 1787621122 | 8.33° C | 82% | 711.1 hPa | 0 mm | - | 0 W/m² | - |
| 1787620294 | 7.78° C | 83% | 711 hPa | 0 mm | - | 0 W/m² | - |
| 1787619922 | 8.33° C | 81% | 711.5 hPa | 0 mm | - | 0 W/m² | - |
| 1787619322 | 8.33° C | 82% | 711.3 hPa | 0 mm | - | 0 W/m² | - |
| 1787618494 | 8.33° C | 81% | 711.5 hPa | 0 mm | - | 0 W/m² | - |
| 1787618122 | 8.33° C | 81% | 711.4 hPa | 0 mm | - | 0 W/m² | - |
| 1787617522 | 8.33° C | 80% | 711.4 hPa | 0 mm | - | 0 W/m² | - |
| 1787616695 | 8.33° C | 80% | 712 hPa | 0 mm | - | 0 W/m² | - |
| 1787616322 | 8.33° C | 80% | 712.2 hPa | 0 mm | - | 0 W/m² | - |
| 1787615722 | 8.33° C | 80% | 712.2 hPa | 0 mm | - | 0 W/m² | - |
| 1787614894 | 8.33° C | 80% | 712.3 hPa | 0 mm | - | 0 W/m² | - |
| 1787614521 | 7.78° C | 78% | 712.4 hPa | 0 mm | - | 0 W/m² | - |
| 1787613922 | 7.78° C | 80% | 712.2 hPa | 0 mm | - | 0 W/m² | - |
| 1787613322 | 7.78° C | 81% | 712.3 hPa | 0.51 mm | - | 0 W/m² | - |
| 1787612721 | 7.22° C | 86% | 712.1 hPa | 1.02 mm | - | 0 W/m² | - |
| 1787612122 | 7.22° C | 86% | 712.5 hPa | 1.27 mm | - | 0 W/m² | - |
| 1787611295 | 7.22° C | 87% | 712.6 hPa | 1.27 mm | - | 0 W/m² | - |
| 1787610921 | 7.22° C | 86% | 712.7 hPa | 1.52 mm | - | 0 W/m² | - |
| 1787610322 | 8.33° C | 79% | 713.2 hPa | 1.52 mm | - | 0 W/m² | - |
| 1787609495 | 7.78° C | 85% | 713.1 hPa | 1.78 mm | - | 0 W/m² | - |
| 1787609122 | 8.89° C | 72% | 714.3 hPa | 1.52 mm | - | 0 W/m² | - |
| 1787607695 | 7.78° C | 80% | 713.5 hPa | 1.02 mm | - | 0 W/m² | - |
* Rain latest hour (hover to see other rain measurements)
** Current wind speed in m/s (hover to see current wind gust speed)